Springfield, AR (72157)

2:46 PM CDT on May 23, 2017 (GMT -0500)
Overcup | | Change Station
Active Advisory: Flood Warning

Elev 397 ft 35.22 °N, 92.68 °W | Updated 0 second ago

Partly Cloudy
Partly Cloudy
81.0 °F
Feels Like 82 °F
N
4.0
Wind Variable Wind from West

Today
High -- | Low -- °F
--% Chance of Precip.
Yesterday
High -- | Low -- °F
Precip. -- in
Pressure 29.73 in
Visibility 7.0 miles
Clouds Few 5000 ft
Heat Index 82 °F
Dew Point 62 °F
Humidity 53%
Rainfall 0.00 in
Snow Depth Not available.
6:00 AM 8:13 PM
Waning Crescent, 6% visible
METAR KCCA 231935Z AUTO 31008G13KT 280V340 7SM FEW050 26/12 A2973 RMK AO2
Pressure 29.73 in
Visibility 7.0 miles
Clouds Few 5000 ft
Heat Index 82 °F
Dew Point 62 °F
Humidity 53%
Rainfall 0.00 in
Snow Depth Not available.
6:00 AM 8:13 PM
Waning Crescent, 6% visible
METAR KCCA 231935Z AUTO 31008G13KT 280V340 7SM FEW050 26/12 A2973 RMK AO2

Get Your Daily Forecast Email!

Thanks for signing up!

Be on the lookout for a verification email in your inbox.

You'll start receiving severe weather alerts in your inbox..

×

10-Day Weather Forecast

Almanac

Astronomy

May. 23, 2017 Rise Set
Actual Time
Civil Twilight
Nautical Twilight
Astronomical Twilight
Moon
Length of Visible Light
Length of Day
Tomorrow will be .
, % of the Moon is Illuminated

Today's Extremes

State Highs State Lows

Community

WunderPhotos

Category 6

Welcome to Category 6. This is the collective home for Weather Underground's featured writeups by Dr. Jeff Masters (right), Bob Henson (left), Chris Burt, and other regular contributors.

Nearby

Air Quality

  Air Quality AQ Index Pollutant
Not available.

Snow Depth

Station Depth Elevation

Earthquake Activity

City Distance Mag. Time & Date
Minimum magnitude displayed is 2.5.

Coastal Water Temperatures

Place Temperature

Stations

Nearby Weather Stations

Station Location Temp. Windchill Dew Point Humidity Wind Precip. Elev Updated Type
                   

Watches & Warnings

Flood Warning
Issued: 8:49 AM CDT May. 23, 2017 – National Weather Service

... Flood Warning extended until Wednesday afternoon... the Flood
Warning continues for
the Arkansas River at Morrilton.
* Until Wednesday afternoon... or until the warning is cancelled.
* At 8:15 am Tuesday the stage was 30.1 feet.
* Minor flooding is occurring and nonflood flooding is forecast.
* Flood stage is 30.0 feet.
* Forecast... the river will continue to fall to below flood stage by
late this morning.
* Impacts at 30.0 feet... commercial and Industrial establishments
downstream of the State Highway 9 bridge are effected.




             Fld observed forecast 6 am
location stg stg day time Wed Thu Fri Sat sun

Arkansas River
Morrilton 30 30.1 Tue 08 am 23.4 23.2 24.5 24.8 24.7




Lat... Lon 3504 9261 3503 9269 3508 9278 3520 9280
3514 9268 3511 9251